sensor_id;sensor_type;location;lat;lon;timestamp;pressure;altitude;pressure_sealevel;temperature;humidity
11041;BME280;5573;49.592;8.662;2023-11-21T00:00:58;99246.44;;;8.03;100.00
11041;BME280;5573;49.592;8.662;2023-11-21T00:03:28;99240.28;;;8.09;100.00
11041;BME280;5573;49.592;8.662;2023-11-21T00:05:57;99243.38;;;8.06;100.00
11041;BME280;5573;49.592;8.662;2023-11-21T00:08:25;99244.56;;;8.17;100.00
11041;BME280;5573;49.592;8.662;2023-11-21T00:10:53;99237.84;;;8.08;100.00
11041;BME280;5573;49.592;8.662;2023-11-21T00:13:22;99245.38;;;8.17;100.00
11041;BME280;5573;49.592;8.662;2023-11-21T00:15:49;99243.97;;;8.15;100.00
11041;BME280;5573;49.592;8.662;2023-11-21T00:18:18;99235.75;;;8.23;100.00
11041;BME280;5573;49.592;8.662;2023-11-21T00:20:46;99242.50;;;8.19;100.00
11041;BME280;5573;49.592;8.662;2023-11-21T00:23:15;99240.69;;;8.13;100.00
11041;BME280;5573;49.592;8.662;2023-11-21T00:25:43;99235.34;;;8.19;100.00
11041;BME280;5573;49.592;8.662;2023-11-21T00:28:11;99236.16;;;8.20;100.00
11041;BME280;5573;49.592;8.662;2023-11-21T00:30:39;99240.88;;;8.18;100.00
11041;BME280;5573;49.592;8.662;2023-11-21T00:33:07;99236.00;;;8.15;100.00
11041;BME280;5573;49.592;8.662;2023-11-21T00:35:35;99235.78;;;8.16;100.00
11041;BME280;5573;49.592;8.662;2023-11-21T00:38:03;99236.19;;;8.13;100.00
11041;BME280;5573;49.592;8.662;2023-11-21T00:40:33;99235.16;;;8.21;100.00
11041;BME280;5573;49.592;8.662;2023-11-21T00:43:01;99231.25;;;8.23;100.00
11041;BME280;5573;49.592;8.662;2023-11-21T00:45:32;99237.38;;;8.24;100.00
11041;BME280;5573;49.592;8.662;2023-11-21T00:48:00;99245.13;;;8.19;100.00
11041;BME280;5573;49.592;8.662;2023-11-21T00:50:29;99235.75;;;8.23;100.00
11041;BME280;5573;49.592;8.662;2023-11-21T00:52:57;99235.56;;;8.18;100.00
11041;BME280;5573;49.592;8.662;2023-11-21T00:55:24;99231.66;;;8.27;100.00
11041;BME280;5573;49.592;8.662;2023-11-21T00:57:54;99235.34;;;8.26;100.00
11041;BME280;5573;49.592;8.662;2023-11-21T01:00:22;99234.75;;;8.17;100.00
11041;BME280;5573;49.592;8.662;2023-11-21T01:02:50;99240.25;;;8.22;100.00
11041;BME280;5573;49.592;8.662;2023-11-21T01:05:18;99238.19;;;8.24;100.00
11041;BME280;5573;49.592;8.662;2023-11-21T01:07:47;99227.97;;;8.28;100.00
11041;BME280;5573;49.592;8.662;2023-11-21T01:10:16;99238.78;;;8.26;100.00
11041;BME280;5573;49.592;8.662;2023-11-21T01:12:44;99227.59;;;8.31;100.00
11041;BME280;5573;49.592;8.662;2023-11-21T01:15:13;99242.25;;;8.27;100.00
11041;BME280;5573;49.592;8.662;2023-11-21T01:17:42;99247.19;;;8.30;100.00
11041;BME280;5573;49.592;8.662;2023-11-21T01:20:11;99245.94;;;8.39;100.00
11041;BME280;5573;49.592;8.662;2023-11-21T01:22:41;99242.28;;;8.34;100.00
11041;BME280;5573;49.592;8.662;2023-11-21T01:25:09;99244.72;;;8.35;100.00
11041;BME280;5573;49.592;8.662;2023-11-21T01:27:37;99244.53;;;8.30;100.00
11041;BME280;5573;49.592;8.662;2023-11-21T01:30:06;99247.19;;;8.30;100.00
11041;BME280;5573;49.592;8.662;2023-11-21T01:32:37;99242.88;;;8.36;100.00
11041;BME280;5573;49.592;8.662;2023-11-21T01:35:06;99245.16;;;8.32;100.00
11041;BME280;5573;49.592;8.662;2023-11-21T01:37:36;99247.41;;;8.28;100.00
11041;BME280;5573;49.592;8.662;2023-11-21T01:40:05;99254.94;;;8.25;100.00
11041;BME280;5573;49.592;8.662;2023-11-21T01:42:41;99247.19;;;8.30;100.00
11041;BME280;5573;49.592;8.662;2023-11-21T01:45:10;99253.31;;;8.31;100.00
11041;BME280;5573;49.592;8.662;2023-11-21T01:47:42;99245.16;;;8.32;100.00
11041;BME280;5573;49.592;8.662;2023-11-21T01:50:14;99250.06;;;8.28;100.00
11041;BME280;5573;49.592;8.662;2023-11-21T01:52:45;99241.88;;;8.30;100.00
11041;BME280;5573;49.592;8.662;2023-11-21T01:55:14;99244.28;;;8.45;100.00
11041;BME280;5573;49.592;8.662;2023-11-21T01:57:55;99256.94;;;8.43;100.00
11041;BME280;5573;49.592;8.662;2023-11-21T02:00:24;99232.50;;;8.21;100.00
11041;BME280;5573;49.592;8.662;2023-11-21T02:02:57;99243.69;;;8.36;100.00
11041;BME280;5573;49.592;8.662;2023-11-21T02:05:26;99241.22;;;8.41;100.00
11041;BME280;5573;49.592;8.662;2023-11-21T02:07:54;99242.25;;;8.40;100.00
11041;BME280;5573;49.592;8.662;2023-11-21T02:10:24;99242.25;;;8.40;100.00
11041;BME280;5573;49.592;8.662;2023-11-21T02:12:52;99248.78;;;8.38;100.00
11041;BME280;5573;49.592;8.662;2023-11-21T02:15:20;99249.59;;;8.38;100.00
11041;BME280;5573;49.592;8.662;2023-11-21T02:17:50;99244.28;;;8.38;100.00
11041;BME280;5573;49.592;8.662;2023-11-21T02:20:21;99241.44;;;8.40;100.00
11041;BME280;5573;49.592;8.662;2023-11-21T02:22:55;99246.34;;;8.36;100.00
11041;BME280;5573;49.592;8.662;2023-11-21T02:25:27;99251.81;;;8.41;100.00
11041;BME280;5573;49.592;8.662;2023-11-21T02:27:56;99258.34;;;8.45;100.00
11041;BME280;5573;49.592;8.662;2023-11-21T02:30:25;99255.69;;;8.45;100.00
11041;BME280;5573;49.592;8.662;2023-11-21T02:32:55;99248.31;;;8.54;100.00
11041;BME280;5573;49.592;8.662;2023-11-21T02:35:25;99254.88;;;8.51;100.00
11041;BME280;5573;49.592;8.662;2023-11-21T02:37:54;99257.13;;;8.48;100.00
11041;BME280;5573;49.592;8.662;2023-11-21T02:40:24;99251.63;;;8.43;100.00
11041;BME280;5573;49.592;8.662;2023-11-21T02:42:53;99249.41;;;8.40;100.00
11041;BME280;5573;49.592;8.662;2023-11-21T02:45:21;99246.31;;;8.43;100.00
11041;BME280;5573;49.592;8.662;2023-11-21T02:47:51;99237.72;;;8.47;100.00
11041;BME280;5573;49.592;8.662;2023-11-21T02:50:24;99232.84;;;8.38;100.00
11041;BME280;5573;49.592;8.662;2023-11-21T02:52:52;99235.72;;;8.43;100.00
11041;BME280;5573;49.592;8.662;2023-11-21T02:55:21;99240.78;;;8.51;100.00
11041;BME280;5573;49.592;8.662;2023-11-21T02:57:52;99240.97;;;8.49;100.00
11041;BME280;5573;49.592;8.662;2023-11-21T03:00:23;99242.22;;;8.47;100.00
11041;BME280;5573;49.592;8.662;2023-11-21T03:02:54;99244.28;;;8.38;100.00
11041;BME280;5573;49.592;8.662;2023-11-21T03:05:25;99235.31;;;8.39;100.00
11041;BME280;5573;49.592;8.662;2023-11-21T03:07:53;99235.75;;;8.36;100.00
11041;BME280;5573;49.592;8.662;2023-11-21T03:10:22;99243.88;;;8.48;100.00
11041;BME280;5573;49.592;8.662;2023-11-21T03:12:50;99238.16;;;8.44;100.00
11041;BME280;5573;49.592;8.662;2023-11-21T03:15:19;99243.66;;;8.43;100.00
11041;BME280;5573;49.592;8.662;2023-11-21T03:17:46;99247.13;;;8.43;100.00
11041;BME280;5573;49.592;8.662;2023-11-21T03:20:16;99246.75;;;8.40;100.00
11041;BME280;5573;49.592;8.662;2023-11-21T03:22:43;99250.00;;;8.42;100.00
11041;BME280;5573;49.592;8.662;2023-11-21T03:25:12;99246.94;;;8.45;100.00
11041;BME280;5573;49.592;8.662;2023-11-21T03:27:43;99243.91;;;8.35;100.00
11041;BME280;5573;49.592;8.662;2023-11-21T03:30:11;99243.66;;;8.43;100.00
11041;BME280;5573;49.592;8.662;2023-11-21T03:32:41;99248.00;;;8.31;100.00
11041;BME280;5573;49.592;8.662;2023-11-21T03:35:09;99247.56;;;8.40;100.00
11041;BME280;5573;49.592;8.662;2023-11-21T03:37:37;99251.63;;;8.43;100.00
11041;BME280;5573;49.592;8.662;2023-11-21T03:40:09;99259.78;;;8.41;100.00
11041;BME280;5573;49.592;8.662;2023-11-21T03:42:37;99251.63;;;8.43;100.00
11041;BME280;5573;49.592;8.662;2023-11-21T03:45:07;99257.78;;;8.30;100.00
11041;BME280;5573;49.592;8.662;2023-11-21T03:47:35;99258.59;;;8.37;100.00
11041;BME280;5573;49.592;8.662;2023-11-21T03:50:04;99252.88;;;8.40;100.00
11041;BME280;5573;49.592;8.662;2023-11-21T03:52:32;99261.03;;;8.39;100.00
11041;BME280;5573;49.592;8.662;2023-11-21T03:55:01;99256.97;;;8.36;100.00
11041;BME280;5573;49.592;8.662;2023-11-21T03:57:29;99259.59;;;8.43;100.00
11041;BME280;5573;49.592;8.662;2023-11-21T03:59:56;99271.44;;;8.40;100.00
11041;BME280;5573;49.592;8.662;2023-11-21T04:02:26;99274.09;;;8.40;100.00
11041;BME280;5573;49.592;8.662;2023-11-21T04:04:55;99264.94;;;8.36;100.00
11041;BME280;5573;49.592;8.662;2023-11-21T04:07:23;99264.31;;;8.34;100.00
11041;BME280;5573;49.592;8.662;2023-11-21T04:09:51;99270.00;;;8.38;100.00
11041;BME280;5573;49.592;8.662;2023-11-21T04:12:20;99278.38;;;8.41;100.00
11041;BME280;5573;49.592;8.662;2023-11-21T04:14:48;99277.34;;;8.42;100.00
11041;BME280;5573;49.592;8.662;2023-11-21T04:17:18;99276.97;;;8.39;100.00
11041;BME280;5573;49.592;8.662;2023-11-21T04:19:48;99283.09;;;8.39;100.00
11041;BME280;5573;49.592;8.662;2023-11-21T04:22:16;99284.31;;;8.43;100.00
11041;BME280;5573;49.592;8.662;2023-11-21T04:24:44;99279.84;;;8.37;100.00
11041;BME280;5573;49.592;8.662;2023-11-21T04:27:12;99279.81;;;8.44;100.00
11041;BME280;5573;49.592;8.662;2023-11-21T04:29:41;99283.09;;;8.39;100.00
11041;BME280;5573;49.592;8.662;2023-11-21T04:32:09;99291.47;;;8.36;100.00
11041;BME280;5573;49.592;8.662;2023-11-21T04:34:37;99280.66;;;8.31;100.00
11041;BME280;5573;49.592;8.662;2023-11-21T04:37:06;99283.91;;;8.40;100.00
11041;BME280;5573;49.592;8.662;2023-11-21T04:39:34;99286.34;;;8.41;100.00
11041;BME280;5573;49.592;8.662;2023-11-21T04:42:02;99292.09;;;8.32;100.00
11041;BME280;5573;49.592;8.662;2023-11-21T04:44:30;99298.22;;;8.32;100.00
11041;BME280;5573;49.592;8.662;2023-11-21T04:46:57;99293.50;;;8.34;100.00
11041;BME280;5573;49.592;8.662;2023-11-21T04:49:25;99299.00;;;8.39;100.00
11041;BME280;5573;49.592;8.662;2023-11-21T04:51:53;99303.91;;;8.36;100.00
11041;BME280;5573;49.592;8.662;2023-11-21T04:54:23;99306.38;;;8.37;100.00
11041;BME280;5573;49.592;8.662;2023-11-21T04:56:54;99303.91;;;8.42;100.00
11041;BME280;5573;49.592;8.662;2023-11-21T04:59:22;99307.97;;;8.38;100.00
11041;BME280;5573;49.592;8.662;2023-11-21T05:01:51;99309.81;;;8.44;100.00
11041;BME280;5573;49.592;8.662;2023-11-21T05:04:20;99316.75;;;8.39;100.00
11041;BME280;5573;49.592;8.662;2023-11-21T05:06:49;99311.06;;;8.35;100.00
11041;BME280;5573;49.592;8.662;2023-11-21T05:09:17;99313.50;;;8.43;100.00
11041;BME280;5573;49.592;8.662;2023-11-21T05:11:46;99319.03;;;8.35;100.00
11041;BME280;5573;49.592;8.662;2023-11-21T05:14:14;99319.66;;;8.37;100.00
11041;BME280;5573;49.592;8.662;2023-11-21T05:16:42;99323.72;;;8.40;100.00
11041;BME280;5573;49.592;8.662;2023-11-21T05:19:10;99324.34;;;8.35;100.00
11041;BME280;5573;49.592;8.662;2023-11-21T05:21:40;99325.53;;;8.39;100.00
11041;BME280;5573;49.592;8.662;2023-11-21T05:24:08;99330.84;;;8.39;100.00
11041;BME280;5573;49.592;8.662;2023-11-21T05:26:35;99330.44;;;8.42;100.00
11041;BME280;5573;49.592;8.662;2023-11-21T05:29:05;99336.59;;;8.36;100.00
11041;BME280;5573;49.592;8.662;2023-11-21T05:31:33;99335.38;;;8.32;100.00
11041;BME280;5573;49.592;8.662;2023-11-21T05:34:02;99345.38;;;8.37;100.00
11041;BME280;5573;49.592;8.662;2023-11-21T05:36:31;99350.44;;;8.38;100.00
11041;BME280;5573;49.592;8.662;2023-11-21T05:39:00;99357.41;;;8.33;100.00
11041;BME280;5573;49.592;8.662;2023-11-21T05:41:30;99358.25;;;8.33;100.00
11041;BME280;5573;49.592;8.662;2023-11-21T05:43:58;99363.94;;;8.37;100.00
11041;BME280;5573;49.592;8.662;2023-11-21T05:46:27;99361.88;;;8.39;100.00
11041;BME280;5573;49.592;8.662;2023-11-21T05:48:55;99361.88;;;8.39;100.00
11041;BME280;5573;49.592;8.662;2023-11-21T05:51:24;99369.44;;;8.42;100.00
11041;BME280;5573;49.592;8.662;2023-11-21T05:53:52;99366.78;;;8.42;100.00
11041;BME280;5573;49.592;8.662;2023-11-21T05:56:20;99369.84;;;8.39;100.00
11041;BME280;5573;49.592;8.662;2023-11-21T05:58:48;99364.34;;;8.40;100.00
11041;BME280;5573;49.592;8.662;2023-11-21T06:01:17;99376.56;;;8.41;100.00
11041;BME280;5573;49.592;8.662;2023-11-21T06:03:46;99383.50;;;8.42;100.00
11041;BME280;5573;49.592;8.662;2023-11-21T06:06:15;99383.31;;;8.44;100.00
11041;BME280;5573;49.592;8.662;2023-11-21T06:08:43;99382.28;;;8.38;100.00
11041;BME280;5573;49.592;8.662;2023-11-21T06:11:10;99387.19;;;8.41;100.00
11041;BME280;5573;49.592;8.662;2023-11-21T06:13:39;99387.59;;;8.38;100.00
11041;BME280;5573;49.592;8.662;2023-11-21T06:16:08;99394.56;;;8.39;100.00
11041;BME280;5573;49.592;8.662;2023-11-21T06:18:36;99394.56;;;8.39;100.00
11041;BME280;5573;49.592;8.662;2023-11-21T06:21:06;99395.78;;;8.43;100.00
11041;BME280;5573;49.592;8.662;2023-11-21T06:23:36;99390.88;;;8.40;100.00
11041;BME280;5573;49.592;8.662;2023-11-21T06:26:05;99403.72;;;8.43;100.00
11041;BME280;5573;49.592;8.662;2023-11-21T06:28:33;99406.38;;;8.43;100.00
11041;BME280;5573;49.592;8.662;2023-11-21T06:31:01;99409.25;;;8.48;100.00
11041;BME280;5573;49.592;8.662;2023-11-21T06:33:32;99406.78;;;8.47;100.00
11041;BME280;5573;49.592;8.662;2023-11-21T06:35:59;99413.94;;;8.46;100.00
11041;BME280;5573;49.592;8.662;2023-11-21T06:38:31;99410.25;;;8.47;100.00
11041;BME280;5573;49.592;8.662;2023-11-21T06:40:59;99343.53;;;7.98;100.00
11041;BME280;5573;49.592;8.662;2023-11-21T06:43:28;99426.19;;;8.47;100.00
11041;BME280;5573;49.592;8.662;2023-11-21T06:45:58;99379.44;;;8.20;100.00
11041;BME280;5573;49.592;8.662;2023-11-21T06:48:26;99430.88;;;8.52;100.00
11041;BME280;5573;49.592;8.662;2023-11-21T06:50:53;99430.06;;;8.51;100.00
11041;BME280;5573;49.592;8.662;2023-11-21T06:53:21;99433.72;;;8.50;100.00
11041;BME280;5573;49.592;8.662;2023-11-21T06:55:51;99437.41;;;8.49;100.00
11041;BME280;5573;49.592;8.662;2023-11-21T06:58:19;99441.69;;;8.50;100.00
11041;BME280;5573;49.592;8.662;2023-11-21T07:00:46;99442.31;;;8.52;100.00
11041;BME280;5573;49.592;8.662;2023-11-21T07:03:19;99440.88;;;8.50;100.00
11041;BME280;5573;49.592;8.662;2023-11-21T07:05:47;99452.09;;;8.45;100.00
11041;BME280;5573;49.592;8.662;2023-11-21T07:08:15;99453.97;;;8.51;100.00
11041;BME280;5573;49.592;8.662;2023-11-21T07:10:42;99458.44;;;8.51;100.00
11041;BME280;5573;49.592;8.662;2023-11-21T07:13:12;99462.34;;;8.48;100.00
11041;BME280;5573;49.592;8.662;2023-11-21T07:15:40;99462.34;;;8.48;100.00
11041;BME280;5573;49.592;8.662;2023-11-21T07:18:08;99471.53;;;8.52;100.00
11041;BME280;5573;49.592;8.662;2023-11-21T07:20:35;99470.91;;;8.50;100.00
11041;BME280;5573;49.592;8.662;2023-11-21T07:23:03;99481.50;;;8.50;100.00
11041;BME280;5573;49.592;8.662;2023-11-21T07:25:32;99468.03;;;8.45;100.00
11041;BME280;5573;49.592;8.662;2023-11-21T07:28:00;99491.13;;;8.58;100.00
11041;BME280;5573;49.592;8.662;2023-11-21T07:30:29;99490.50;;;8.62;100.00
11041;BME280;5573;49.592;8.662;2023-11-21T07:32:57;99491.31;;;8.56;100.00
11041;BME280;5573;49.592;8.662;2023-11-21T07:35:25;99489.88;;;8.60;100.00
11041;BME280;5573;49.592;8.662;2023-11-21T07:37:53;99492.13;;;8.63;100.00
11041;BME280;5573;49.592;8.662;2023-11-21T07:40:20;99496.00;;;8.67;100.00
11041;BME280;5573;49.592;8.662;2023-11-21T07:42:49;99497.84;;;8.67;100.00
11041;BME280;5573;49.592;8.662;2023-11-21T07:45:17;99501.94;;;8.69;100.00
11041;BME280;5573;49.592;8.662;2023-11-21T07:47:46;99510.50;;;8.71;100.00
11041;BME280;5573;49.592;8.662;2023-11-21T07:50:14;99511.53;;;8.70;100.00
11041;BME280;5573;49.592;8.662;2023-11-21T07:52:42;99512.13;;;8.72;100.00
11041;BME280;5573;49.592;8.662;2023-11-21T07:55:10;99517.44;;;8.72;100.00
11041;BME280;5573;49.592;8.662;2023-11-21T07:57:38;99519.69;;;8.89;100.00
11041;BME280;5573;49.592;8.662;2023-11-21T08:00:07;99521.13;;;8.85;100.00
11041;BME280;5573;49.592;8.662;2023-11-21T08:02:38;99518.25;;;8.80;100.00
11041;BME280;5573;49.592;8.662;2023-11-21T08:05:10;99522.34;;;8.89;100.00
11041;BME280;5573;49.592;8.662;2023-11-21T08:07:50;99531.91;;;8.90;100.00
11041;BME280;5573;49.592;8.662;2023-11-21T08:10:18;99517.84;;;8.89;100.00
11041;BME280;5573;49.592;8.662;2023-11-21T08:12:47;99513.94;;;8.92;100.00
11041;BME280;5573;49.592;8.662;2023-11-21T08:15:18;99517.03;;;8.89;100.00
11041;BME280;5573;49.592;8.662;2023-11-21T08:17:46;99519.88;;;8.87;100.00
11041;BME280;5573;49.592;8.662;2023-11-21T08:20:16;99527.03;;;8.87;100.00
11041;BME280;5573;49.592;8.662;2023-11-21T08:22:45;99535.59;;;8.95;100.00
11041;BME280;5573;49.592;8.662;2023-11-21T08:25:14;99539.69;;;8.91;100.00
11041;BME280;5573;49.592;8.662;2023-11-21T08:27:44;99542.97;;;8.87;100.00
11041;BME280;5573;49.592;8.662;2023-11-21T08:30:12;99541.53;;;8.91;100.00
11041;BME280;5573;49.592;8.662;2023-11-21T08:32:41;99545.19;;;8.90;100.00
11041;BME280;5573;49.592;8.662;2023-11-21T08:35:10;99552.56;;;8.94;100.00
11041;BME280;5573;49.592;8.662;2023-11-21T08:37:41;99563.00;;;8.96;100.00
11041;BME280;5573;49.592;8.662;2023-11-21T08:40:10;99562.78;;;9.04;100.00
11041;BME280;5573;49.592;8.662;2023-11-21T08:42:42;99562.75;;;9.10;100.00
11041;BME280;5573;49.592;8.662;2023-11-21T08:45:12;99557.44;;;9.10;100.00
11041;BME280;5573;49.592;8.662;2023-11-21T08:47:40;99571.94;;;9.14;100.00
11041;BME280;5573;49.592;8.662;2023-11-21T08:50:11;99577.25;;;9.21;100.00
11041;BME280;5573;49.592;8.662;2023-11-21T08:52:41;99578.25;;;9.20;100.00
11041;BME280;5573;49.592;8.662;2023-11-21T08:55:09;99580.91;;;9.20;100.00
11041;BME280;5573;49.592;8.662;2023-11-21T08:57:39;99582.75;;;9.26;100.00
11041;BME280;5573;49.592;8.662;2023-11-21T09:00:09;99587.47;;;9.24;100.00
11041;BME280;5573;49.592;8.662;2023-11-21T09:02:39;99590.13;;;9.24;100.00
11041;BME280;5573;49.592;8.662;2023-11-21T09:05:08;99598.72;;;9.26;100.00
11041;BME280;5573;49.592;8.662;2023-11-21T09:07:38;99593.56;;;9.31;100.00
11041;BME280;5573;49.592;8.662;2023-11-21T09:10:08;99597.03;;;9.38;100.00
11041;BME280;5573;49.592;8.662;2023-11-21T09:12:37;99592.53;;;9.39;100.00
11041;BME280;5573;49.592;8.662;2023-11-21T09:15:06;99602.59;;;9.30;100.00
11041;BME280;5573;49.592;8.662;2023-11-21T09:17:34;99600.09;;;9.35;100.00
11041;BME280;5573;49.592;8.662;2023-11-21T09:20:04;99609.91;;;9.35;100.00
11041;BME280;5573;49.592;8.662;2023-11-21T09:22:33;99612.19;;;9.38;100.00
11041;BME280;5573;49.592;8.662;2023-11-21T09:25:00;99612.97;;;9.38;100.00
11041;BME280;5573;49.592;8.662;2023-11-21T09:27:33;99624.81;;;9.55;100.00
11041;BME280;5573;49.592;8.662;2023-11-21T09:30:03;99622.38;;;9.47;100.00
11041;BME280;5573;49.592;8.662;2023-11-21T09:32:32;99635.06;;;9.45;100.00
11041;BME280;5573;49.592;8.662;2023-11-21T09:35:02;99628.91;;;9.51;100.00
11041;BME280;5573;49.592;8.662;2023-11-21T09:37:30;99629.50;;;9.53;100.00
11041;BME280;5573;49.592;8.662;2023-11-21T09:39:58;99635.03;;;9.58;100.00
11041;BME280;5573;49.592;8.662;2023-11-21T09:42:35;99639.50;;;9.64;100.00
11041;BME280;5573;49.592;8.662;2023-11-21T09:45:09;99641.16;;;9.65;100.00
11041;BME280;5573;49.592;8.662;2023-11-21T09:47:42;99649.13;;;9.65;100.00
11041;BME280;5573;49.592;8.662;2023-11-21T09:50:11;99645.81;;;9.77;100.00
11041;BME280;5573;49.592;8.662;2023-11-21T09:52:45;99642.38;;;9.69;100.00
11041;BME280;5573;49.592;8.662;2023-11-21T09:55:18;99649.63;;;9.94;100.00
11041;BME280;5573;49.592;8.662;2023-11-21T09:57:49;99656.00;;;9.93;100.00
11041;BME280;5573;49.592;8.662;2023-11-21T10:00:18;99659.28;;;9.88;100.00
11041;BME280;5573;49.592;8.662;2023-11-21T10:02:50;99658.91;;;9.85;100.00
11041;BME280;5573;49.592;8.662;2023-11-21T10:05:19;99661.56;;;9.85;100.00
11041;BME280;5573;49.592;8.662;2023-11-21T10:07:53;99652.38;;;9.74;100.00
11041;BME280;5573;49.592;8.662;2023-11-21T10:10:24;99659.34;;;9.68;100.00
11041;BME280;5573;49.592;8.662;2023-11-21T10:12:55;99665.91;;;9.66;100.00
11041;BME280;5573;49.592;8.662;2023-11-21T10:15:24;99667.94;;;9.70;100.00
11041;BME280;5573;49.592;8.662;2023-11-21T10:17:53;99668.56;;;9.66;100.00
11041;BME280;5573;49.592;8.662;2023-11-21T10:20:23;99645.28;;;9.48;100.00
11041;BME280;5573;49.592;8.662;2023-11-21T10:22:52;99664.09;;;9.53;100.00
11041;BME280;5573;49.592;8.662;2023-11-21T10:25:20;99661.44;;;9.60;100.00
11041;BME280;5573;49.592;8.662;2023-11-21T10:27:48;99659.38;;;9.55;100.00
11041;BME280;5573;49.592;8.662;2023-11-21T10:30:19;99671.03;;;9.54;100.00
11041;BME280;5573;49.592;8.662;2023-11-21T10:32:47;99670.66;;;9.44;100.00
11041;BME280;5573;49.592;8.662;2023-11-21T10:35:15;99665.34;;;9.38;100.00
11041;BME280;5573;49.592;8.662;2023-11-21T10:37:43;99672.50;;;9.37;100.00
11041;BME280;5573;49.592;8.662;2023-11-21T10:40:11;99672.31;;;9.32;100.00
11041;BME280;5573;49.592;8.662;2023-11-21T10:42:40;99677.41;;;9.27;100.00
11041;BME280;5573;49.592;8.662;2023-11-21T10:45:09;99681.09;;;9.26;100.00
11041;BME280;5573;49.592;8.662;2023-11-21T10:47:42;99681.31;;;9.18;100.00
11041;BME280;5573;49.592;8.662;2023-11-21T10:50:11;99682.31;;;9.23;100.00
11041;BME280;5573;49.592;8.662;2023-11-21T10:52:39;99686.19;;;9.27;100.00
11041;BME280;5573;49.592;8.662;2023-11-21T10:55:16;99646.16;;;9.03;100.00
11041;BME280;5573;49.592;8.662;2023-11-21T10:57:48;99692.56;;;9.33;100.00
11041;BME280;5573;49.592;8.662;2023-11-21T11:00:17;99697.66;;;9.41;100.00
11041;BME280;5573;49.592;8.662;2023-11-21T11:02:51;99698.47;;;9.48;100.00
11041;BME280;5573;49.592;8.662;2023-11-21T11:05:21;99700.28;;;9.67;100.00
11041;BME280;5573;49.592;8.662;2023-11-21T11:07:52;99699.63;;;9.85;100.00
11041;BME280;5573;49.592;8.662;2023-11-21T11:10:27;99691.41;;;9.93;100.00
11041;BME280;5573;49.592;8.662;2023-11-21T11:12:56;99692.22;;;10.00;100.00
11041;BME280;5573;49.592;8.662;2023-11-21T11:15:26;99690.78;;;10.04;100.00
11041;BME280;5573;49.592;8.662;2023-11-21T11:17:55;99687.44;;;10.09;100.00
11041;BME280;5573;49.592;8.662;2023-11-21T11:20:29;99690.53;;;10.19;100.00
11041;BME280;5573;49.592;8.662;2023-11-21T11:23:13;99694.97;;;10.32;100.00
11041;BME280;5573;49.592;8.662;2023-11-21T11:25:57;99681.47;;;10.33;100.00
11041;BME280;5573;49.592;8.662;2023-11-21T11:28:37;99680.97;;;10.49;100.00
11041;BME280;5573;49.592;8.662;2023-11-21T11:31:24;99686.97;;;10.32;100.00
11041;BME280;5573;49.592;8.662;2023-11-21T11:33:59;99691.50;;;10.31;100.00
11041;BME280;5573;49.592;8.662;2023-11-21T11:36:34;99682.72;;;10.24;100.00
11041;BME280;5573;49.592;8.662;2023-11-21T11:39:26;99692.94;;;10.34;100.00
11041;BME280;5573;49.592;8.662;2023-11-21T11:41:55;99693.72;;;10.41;100.00
11041;BME280;5573;49.592;8.662;2023-11-21T11:44:47;99698.59;;;10.44;100.00
11041;BME280;5573;49.592;8.662;2023-11-21T11:47:20;99695.50;;;10.47;100.00
11041;BME280;5573;49.592;8.662;2023-11-21T11:50:05;99705.34;;;10.46;100.00
11041;BME280;5573;49.592;8.662;2023-11-21T11:52:40;99701.91;;;10.39;99.51
11041;BME280;5573;49.592;8.662;2023-11-21T11:55:09;99709.22;;;10.50;100.00
11041;BME280;5573;49.592;8.662;2023-11-21T11:57:38;99684.50;;;10.75;97.63
11041;BME280;5573;49.592;8.662;2023-11-21T12:00:11;99711.53;;;10.78;97.35
11041;BME280;5573;49.592;8.662;2023-11-21T12:02:45;99711.59;;;10.72;98.60
11041;BME280;5573;49.592;8.662;2023-11-21T12:05:16;99704.81;;;10.69;93.65
11041;BME280;5573;49.592;8.662;2023-11-21T12:07:48;99707.97;;;10.59;93.47
11041;BME280;5573;49.592;8.662;2023-11-21T12:10:19;99703.97;;;10.37;94.35
11041;BME280;5573;49.592;8.662;2023-11-21T12:12:49;99718.59;;;10.15;94.17
11041;BME280;5573;49.592;8.662;2023-11-21T12:15:17;99715.13;;;10.01;94.94
11041;BME280;5573;49.592;8.662;2023-11-21T12:17:46;99713.31;;;9.95;95.48
11041;BME280;5573;49.592;8.662;2023-11-21T12:20:18;99720.28;;;9.90;97.18
11041;BME280;5573;49.592;8.662;2023-11-21T12:22:47;99725.81;;;9.88;97.32
11041;BME280;5573;49.592;8.662;2023-11-21T12:25:16;99716.19;;;9.87;95.19
11041;BME280;5573;49.592;8.662;2023-11-21T12:27:45;99725.75;;;10.08;91.39
11041;BME280;5573;49.592;8.662;2023-11-21T12:30:17;99719.47;;;10.47;93.08
11041;BME280;5573;49.592;8.662;2023-11-21T12:32:48;99714.50;;;10.63;92.55
11041;BME280;5573;49.592;8.662;2023-11-21T12:35:20;99711.97;;;10.75;91.38
11041;BME280;5573;49.592;8.662;2023-11-21T12:37:48;99710.97;;;11.01;91.69
11041;BME280;5573;49.592;8.662;2023-11-21T12:40:17;99714.16;;;11.16;90.56
11041;BME280;5573;49.592;8.662;2023-11-21T12:42:47;99716.69;;;11.29;88.43
11041;BME280;5573;49.592;8.662;2023-11-21T12:45:19;99718.94;;;11.32;87.72
11041;BME280;5573;49.592;8.662;2023-11-21T12:47:50;99689.16;;;11.10;85.65
11041;BME280;5573;49.592;8.662;2023-11-21T12:50:23;99720.50;;;11.40;87.25
11041;BME280;5573;49.592;8.662;2023-11-21T12:52:59;99728.38;;;11.28;89.11
11041;BME280;5573;49.592;8.662;2023-11-21T12:55:30;99732.84;;;11.09;88.07
11041;BME280;5573;49.592;8.662;2023-11-21T12:58:01;99739.69;;;10.99;85.90
11041;BME280;5573;49.592;8.662;2023-11-21T13:00:36;99744.66;;;10.89;89.38
11041;BME280;5573;49.592;8.662;2023-11-21T13:03:06;99744.91;;;10.81;92.88
11041;BME280;5573;49.592;8.662;2023-11-21T13:05:37;99744.75;;;10.76;95.35
11041;BME280;5573;49.592;8.662;2023-11-21T13:08:07;99744.75;;;10.76;93.53
11041;BME280;5573;49.592;8.662;2023-11-21T13:10:36;99743.97;;;10.68;90.59
11041;BME280;5573;49.592;8.662;2023-11-21T13:13:06;99736.53;;;10.77;92.33
11041;BME280;5573;49.592;8.662;2023-11-21T13:15:39;99739.44;;;10.69;91.46
11041;BME280;5573;49.592;8.662;2023-11-21T13:18:07;99749.44;;;10.80;89.59
11041;BME280;5573;49.592;8.662;2023-11-21T13:20:39;99756.97;;;10.90;86.31
11041;BME280;5573;49.592;8.662;2023-11-21T13:23:08;99765.41;;;10.87;89.33